sensor_id;sensor_type;location;lat;lon;timestamp;pressure;altitude;pressure_sealevel;temperature;humidity
21431;BME280;10876;49.038;10.608;2023-06-26T00:01:59;69002.06;;;-146.10;100.00
21431;BME280;10876;49.038;10.608;2023-06-26T00:04:26;69002.06;;;-146.10;100.00
21431;BME280;10876;49.038;10.608;2023-06-26T00:06:52;69002.06;;;-146.10;100.00
21431;BME280;10876;49.038;10.608;2023-06-26T00:09:19;69002.06;;;-146.10;100.00
21431;BME280;10876;49.038;10.608;2023-06-26T00:11:46;69002.06;;;-146.10;100.00
21431;BME280;10876;49.038;10.608;2023-06-26T00:14:15;69002.06;;;-146.10;100.00
21431;BME280;10876;49.038;10.608;2023-06-26T00:16:42;69002.06;;;-146.10;100.00
21431;BME280;10876;49.038;10.608;2023-06-26T00:19:09;69002.06;;;-146.10;100.00
21431;BME280;10876;49.038;10.608;2023-06-26T00:21:35;69002.06;;;-146.10;100.00
21431;BME280;10876;49.038;10.608;2023-06-26T00:24:03;69002.06;;;-146.10;100.00
21431;BME280;10876;49.038;10.608;2023-06-26T00:26:30;69002.06;;;-146.10;100.00
21431;BME280;10876;49.038;10.608;2023-06-26T00:28:57;69002.06;;;-146.10;100.00
21431;BME280;10876;49.038;10.608;2023-06-26T00:31:25;69002.06;;;-146.10;100.00
21431;BME280;10876;49.038;10.608;2023-06-26T00:33:52;69002.06;;;-146.10;100.00
21431;BME280;10876;49.038;10.608;2023-06-26T00:36:19;69002.06;;;-146.10;100.00
21431;BME280;10876;49.038;10.608;2023-06-26T00:38:48;69002.06;;;-146.10;100.00
21431;BME280;10876;49.038;10.608;2023-06-26T00:41:15;69002.06;;;-146.10;100.00
21431;BME280;10876;49.038;10.608;2023-06-26T00:43:42;69002.06;;;-146.10;100.00
21431;BME280;10876;49.038;10.608;2023-06-26T00:46:12;69002.06;;;-146.10;100.00
21431;BME280;10876;49.038;10.608;2023-06-26T00:48:43;69002.06;;;-146.10;100.00
21431;BME280;10876;49.038;10.608;2023-06-26T00:51:10;69002.06;;;-146.10;100.00
21431;BME280;10876;49.038;10.608;2023-06-26T00:53:38;69002.06;;;-146.10;100.00
21431;BME280;10876;49.038;10.608;2023-06-26T00:56:05;69002.06;;;-146.10;100.00
21431;BME280;10876;49.038;10.608;2023-06-26T00:58:32;69002.06;;;-146.10;100.00
21431;BME280;10876;49.038;10.608;2023-06-26T01:00:59;69002.06;;;-146.10;100.00
21431;BME280;10876;49.038;10.608;2023-06-26T01:03:28;69002.06;;;-146.10;100.00
21431;BME280;10876;49.038;10.608;2023-06-26T01:05:58;69002.06;;;-146.10;100.00
21431;BME280;10876;49.038;10.608;2023-06-26T01:08:26;69002.06;;;-146.10;100.00
21431;BME280;10876;49.038;10.608;2023-06-26T01:10:54;69002.06;;;-146.10;100.00
21431;BME280;10876;49.038;10.608;2023-06-26T01:13:21;69002.06;;;-146.10;100.00
21431;BME280;10876;49.038;10.608;2023-06-26T01:15:49;69002.06;;;-146.10;100.00
21431;BME280;10876;49.038;10.608;2023-06-26T01:18:16;69002.06;;;-146.10;100.00
21431;BME280;10876;49.038;10.608;2023-06-26T01:20:44;69002.06;;;-146.10;100.00
21431;BME280;10876;49.038;10.608;2023-06-26T01:23:16;69002.06;;;-146.10;100.00
21431;BME280;10876;49.038;10.608;2023-06-26T01:25:56;69002.06;;;-146.10;100.00
21431;BME280;10876;49.038;10.608;2023-06-26T01:28:28;69002.06;;;-146.10;100.00
21431;BME280;10876;49.038;10.608;2023-06-26T01:30:55;69002.06;;;-146.10;100.00
21431;BME280;10876;49.038;10.608;2023-06-26T01:33:23;69002.06;;;-146.10;100.00
21431;BME280;10876;49.038;10.608;2023-06-26T01:35:50;69002.06;;;-146.10;100.00
21431;BME280;10876;49.038;10.608;2023-06-26T01:38:19;69002.06;;;-146.10;100.00
21431;BME280;10876;49.038;10.608;2023-06-26T01:40:46;69002.06;;;-146.10;100.00
21431;BME280;10876;49.038;10.608;2023-06-26T01:43:18;69002.06;;;-146.10;100.00
21431;BME280;10876;49.038;10.608;2023-06-26T01:45:50;69002.06;;;-146.10;100.00
21431;BME280;10876;49.038;10.608;2023-06-26T01:48:22;69002.06;;;-146.10;100.00
21431;BME280;10876;49.038;10.608;2023-06-26T01:50:51;69002.06;;;-146.10;100.00
21431;BME280;10876;49.038;10.608;2023-06-26T01:53:20;69002.06;;;-146.10;100.00
21431;BME280;10876;49.038;10.608;2023-06-26T01:55:51;69002.06;;;-146.10;100.00
21431;BME280;10876;49.038;10.608;2023-06-26T01:58:22;69002.06;;;-146.10;100.00
21431;BME280;10876;49.038;10.608;2023-06-26T02:00:52;69002.06;;;-146.10;100.00
21431;BME280;10876;49.038;10.608;2023-06-26T02:03:20;69002.06;;;-146.10;100.00
21431;BME280;10876;49.038;10.608;2023-06-26T02:05:49;69002.06;;;-146.10;100.00
21431;BME280;10876;49.038;10.608;2023-06-26T02:08:16;69002.06;;;-146.10;100.00
21431;BME280;10876;49.038;10.608;2023-06-26T02:10:43;69002.06;;;-146.10;100.00
21431;BME280;10876;49.038;10.608;2023-06-26T02:13:10;69002.06;;;-146.10;100.00
21431;BME280;10876;49.038;10.608;2023-06-26T02:15:37;69002.06;;;-146.10;100.00
21431;BME280;10876;49.038;10.608;2023-06-26T02:18:05;69002.06;;;-146.10;100.00
21431;BME280;10876;49.038;10.608;2023-06-26T02:20:32;69002.06;;;-146.10;100.00
21431;BME280;10876;49.038;10.608;2023-06-26T02:23:00;69002.06;;;-146.10;100.00
21431;BME280;10876;49.038;10.608;2023-06-26T02:25:27;69002.06;;;-146.10;100.00
21431;BME280;10876;49.038;10.608;2023-06-26T02:27:54;69002.06;;;-146.10;100.00
21431;BME280;10876;49.038;10.608;2023-06-26T02:30:20;69002.06;;;-146.10;100.00
21431;BME280;10876;49.038;10.608;2023-06-26T02:32:47;69002.06;;;-146.10;100.00
21431;BME280;10876;49.038;10.608;2023-06-26T02:35:16;69002.06;;;-146.10;100.00
21431;BME280;10876;49.038;10.608;2023-06-26T02:37:43;69002.06;;;-146.10;100.00
21431;BME280;10876;49.038;10.608;2023-06-26T02:40:10;69002.06;;;-146.10;100.00
21431;BME280;10876;49.038;10.608;2023-06-26T02:42:37;69002.06;;;-146.10;100.00
21431;BME280;10876;49.038;10.608;2023-06-26T03:08:02;99244.63;;;13.21;100.00
21431;BME280;10876;49.038;10.608;2023-06-26T03:10:29;99281.13;;;13.13;100.00
21431;BME280;10876;49.038;10.608;2023-06-26T03:12:56;99302.59;;;13.02;100.00
21431;BME280;10876;49.038;10.608;2023-06-26T03:15:23;99299.47;;;13.18;100.00
21431;BME280;10876;49.038;10.608;2023-06-26T03:17:50;99247.31;;;13.13;100.00
21431;BME280;10876;49.038;10.608;2023-06-26T03:20:16;99267.44;;;13.22;100.00
21431;BME280;10876;49.038;10.608;2023-06-26T03:22:43;99254.78;;;13.35;100.00
21431;BME280;10876;49.038;10.608;2023-06-26T03:25:11;99256.09;;;13.37;100.00
21431;BME280;10876;49.038;10.608;2023-06-26T03:27:38;99247.38;;;13.44;100.00
21431;BME280;10876;49.038;10.608;2023-06-26T03:30:05;99242.03;;;13.47;100.00
21431;BME280;10876;49.038;10.608;2023-06-26T03:32:32;99255.94;;;13.42;100.00
21431;BME280;10876;49.038;10.608;2023-06-26T03:34:59;99255.06;;;13.33;100.00
21431;BME280;10876;49.038;10.608;2023-06-26T03:37:28;99270.09;;;13.27;100.00
21431;BME280;10876;49.038;10.608;2023-06-26T03:39:55;99307.50;;;13.28;100.00
21431;BME280;10876;49.038;10.608;2023-06-26T03:42:23;99296.00;;;13.26;100.00
21431;BME280;10876;49.038;10.608;2023-06-26T03:44:50;99301.22;;;13.36;100.00
21431;BME280;10876;49.038;10.608;2023-06-26T03:47:16;99339.25;;;13.34;100.00
21431;BME280;10876;49.038;10.608;2023-06-26T03:49:43;99351.00;;;13.26;100.00
21431;BME280;10876;49.038;10.608;2023-06-26T03:52:10;99345.50;;;13.26;100.00
21431;BME280;10876;49.038;10.608;2023-06-26T03:54:36;99390.13;;;13.23;100.00
21431;BME280;10876;49.038;10.608;2023-06-26T03:57:03;99455.19;;;13.41;100.00
21431;BME280;10876;49.038;10.608;2023-06-26T03:59:32;99455.81;;;13.38;100.00
21431;BME280;10876;49.038;10.608;2023-06-26T04:01:58;99453.19;;;13.33;100.00
21431;BME280;10876;49.038;10.608;2023-06-26T04:04:25;99458.56;;;13.38;100.00
21431;BME280;10876;49.038;10.608;2023-06-26T04:06:52;99475.91;;;13.39;100.00
21431;BME280;10876;49.038;10.608;2023-06-26T04:09:18;99486.97;;;13.47;100.00
21431;BME280;10876;49.038;10.608;2023-06-26T04:11:45;99509.28;;;13.60;100.00
21431;BME280;10876;49.038;10.608;2023-06-26T04:14:12;99530.44;;;13.73;100.00
21431;BME280;10876;49.038;10.608;2023-06-26T04:16:40;99542.81;;;13.84;100.00
21431;BME280;10876;49.038;10.608;2023-06-26T04:19:06;99544.47;;;13.85;100.00
21431;BME280;10876;49.038;10.608;2023-06-26T04:21:35;99556.03;;;13.96;100.00
21431;BME280;10876;49.038;10.608;2023-06-26T04:24:02;99545.06;;;14.05;100.00
21431;BME280;10876;49.038;10.608;2023-06-26T04:26:29;99554.53;;;14.12;100.00
21431;BME280;10876;49.038;10.608;2023-06-26T04:28:55;99568.06;;;14.23;100.00
21431;BME280;10876;49.038;10.608;2023-06-26T04:31:22;99568.31;;;14.35;100.00
21431;BME280;10876;49.038;10.608;2023-06-26T04:33:53;99566.59;;;14.48;100.00
21431;BME280;10876;49.038;10.608;2023-06-26T04:36:20;99568.69;;;14.73;100.00
21431;BME280;10876;49.038;10.608;2023-06-26T04:38:47;99568.16;;;14.94;100.00
21431;BME280;10876;49.038;10.608;2023-06-26T04:41:14;99558.75;;;14.95;100.00
21431;BME280;10876;49.038;10.608;2023-06-26T04:43:41;99543.53;;;15.06;100.00
21431;BME280;10876;49.038;10.608;2023-06-26T04:46:07;99522.91;;;15.12;100.00
21431;BME280;10876;49.038;10.608;2023-06-26T04:48:34;99496.16;;;15.21;100.00
21431;BME280;10876;49.038;10.608;2023-06-26T04:51:02;99483.50;;;15.38;100.00
21431;BME280;10876;49.038;10.608;2023-06-26T04:53:29;99467.75;;;15.55;100.00
21431;BME280;10876;49.038;10.608;2023-06-26T04:55:56;99446.78;;;15.63;100.00
21431;BME280;10876;49.038;10.608;2023-06-26T04:58:22;99418.53;;;15.66;100.00
21431;BME280;10876;49.038;10.608;2023-06-26T05:00:49;99394.81;;;15.83;100.00
21431;BME280;10876;49.038;10.608;2023-06-26T05:03:17;99320.00;;;15.88;100.00
21431;BME280;10876;49.038;10.608;2023-06-26T05:05:44;99297.69;;;16.02;100.00
21431;BME280;10876;49.038;10.608;2023-06-26T05:08:17;99262.44;;;16.19;100.00
21431;BME280;10876;49.038;10.608;2023-06-26T05:10:44;99241.84;;;16.38;100.00
21431;BME280;10876;49.038;10.608;2023-06-26T05:13:11;99232.41;;;16.60;100.00
21431;BME280;10876;49.038;10.608;2023-06-26T05:15:40;99175.13;;;16.81;100.00
21431;BME280;10876;49.038;10.608;2023-06-26T05:18:07;99143.94;;;17.05;100.00
21431;BME280;10876;49.038;10.608;2023-06-26T05:20:34;98208.84;;;17.27;100.00
21431;BME280;10876;49.038;10.608;2023-06-26T05:23:01;98191.47;;;17.49;100.00
21431;BME280;10876;49.038;10.608;2023-06-26T05:25:30;98183.06;;;17.69;100.00
21431;BME280;10876;49.038;10.608;2023-06-26T05:27:58;98204.03;;;17.93;100.00
21431;BME280;10876;49.038;10.608;2023-06-26T05:30:25;98211.41;;;18.08;100.00
21431;BME280;10876;49.038;10.608;2023-06-26T05:32:53;98254.06;;;18.27;100.00
21431;BME280;10876;49.038;10.608;2023-06-26T05:35:21;98181.75;;;18.42;100.00
21431;BME280;10876;49.038;10.608;2023-06-26T05:37:49;98186.84;;;18.67;100.00
21431;BME280;10876;49.038;10.608;2023-06-26T05:40:18;98203.22;;;18.76;100.00
21431;BME280;10876;49.038;10.608;2023-06-26T05:42:47;98167.00;;;18.99;100.00
21431;BME280;10876;49.038;10.608;2023-06-26T05:45:14;98202.50;;;19.20;100.00
21431;BME280;10876;49.038;10.608;2023-06-26T05:47:41;98197.84;;;19.31;100.00
21431;BME280;10876;49.038;10.608;2023-06-26T05:50:09;98214.66;;;19.45;100.00
21431;BME280;10876;49.038;10.608;2023-06-26T05:52:36;98251.41;;;19.65;100.00
21431;BME280;10876;49.038;10.608;2023-06-26T05:55:05;98261.75;;;19.68;100.00
21431;BME280;10876;49.038;10.608;2023-06-26T05:57:33;98331.88;;;19.92;100.00
21431;BME280;10876;49.038;10.608;2023-06-26T06:00:03;98489.31;;;20.07;100.00
21431;BME280;10876;49.038;10.608;2023-06-26T06:02:36;98562.59;;;20.22;100.00
21431;BME280;10876;49.038;10.608;2023-06-26T06:05:03;98601.72;;;20.36;100.00
21431;BME280;10876;49.038;10.608;2023-06-26T06:07:30;98710.81;;;20.49;100.00
21431;BME280;10876;49.038;10.608;2023-06-26T06:09:57;98793.84;;;20.74;100.00
21431;BME280;10876;49.038;10.608;2023-06-26T06:12:24;98765.50;;;20.95;100.00
21431;BME280;10876;49.038;10.608;2023-06-26T06:14:51;98768.78;;;21.04;100.00
21431;BME280;10876;49.038;10.608;2023-06-26T06:17:19;98783.72;;;21.22;100.00
21431;BME280;10876;49.038;10.608;2023-06-26T06:19:46;98837.13;;;21.58;100.00
21431;BME280;10876;49.038;10.608;2023-06-26T06:22:12;98890.34;;;21.83;100.00
21431;BME280;10876;49.038;10.608;2023-06-26T06:24:39;98935.72;;;22.14;100.00
21431;BME280;10876;49.038;10.608;2023-06-26T06:27:06;98975.69;;;22.21;100.00
21431;BME280;10876;49.038;10.608;2023-06-26T06:29:32;98996.63;;;22.38;100.00
21431;BME280;10876;49.038;10.608;2023-06-26T06:31:59;99024.69;;;22.53;100.00
21431;BME280;10876;49.038;10.608;2023-06-26T06:34:27;99044.50;;;22.81;100.00
21431;BME280;10876;49.038;10.608;2023-06-26T06:36:54;99070.44;;;22.82;100.00
21431;BME280;10876;49.038;10.608;2023-06-26T06:39:20;99105.25;;;22.91;100.00
21431;BME280;10876;49.038;10.608;2023-06-26T06:41:47;99119.22;;;22.91;100.00
21431;BME280;10876;49.038;10.608;2023-06-26T06:44:14;99133.16;;;23.25;100.00
21431;BME280;10876;49.038;10.608;2023-06-26T06:46:40;99155.91;;;23.24;100.00
21431;BME280;10876;49.038;10.608;2023-06-26T06:49:07;99159.69;;;23.46;100.00
21431;BME280;10876;49.038;10.608;2023-06-26T06:51:35;99175.03;;;23.66;100.00
21431;BME280;10876;49.038;10.608;2023-06-26T06:54:02;99185.31;;;23.55;100.00
21431;BME280;10876;49.038;10.608;2023-06-26T06:56:29;99183.19;;;23.86;100.00
21431;BME280;10876;49.038;10.608;2023-06-26T06:58:55;99187.34;;;24.06;100.00
21431;BME280;10876;49.038;10.608;2023-06-26T07:01:22;99204.03;;;23.92;100.00
21431;BME280;10876;49.038;10.608;2023-06-26T07:03:49;99205.03;;;24.21;100.00
21431;BME280;10876;49.038;10.608;2023-06-26T07:06:15;99211.59;;;24.43;100.00
21431;BME280;10876;49.038;10.608;2023-06-26T07:08:43;99214.00;;;24.44;100.00
21431;BME280;10876;49.038;10.608;2023-06-26T07:11:10;99222.19;;;24.82;100.00
21431;BME280;10876;49.038;10.608;2023-06-26T07:13:37;99224.84;;;24.53;100.00
21431;BME280;10876;49.038;10.608;2023-06-26T07:16:04;99229.94;;;25.24;100.00
21431;BME280;10876;49.038;10.608;2023-06-26T07:18:30;99325.50;;;24.87;100.00
21431;BME280;10876;49.038;10.608;2023-06-26T07:20:57;99516.56;;;25.44;100.00
21431;BME280;10876;49.038;10.608;2023-06-26T07:23:24;99391.53;;;25.50;100.00
21431;BME280;10876;49.038;10.608;2023-06-26T07:25:52;99508.47;;;25.32;100.00
21431;BME280;10876;49.038;10.608;2023-06-26T07:28:18;99479.81;;;25.67;100.00
21431;BME280;10876;49.038;10.608;2023-06-26T07:30:45;99418.94;;;25.89;100.00
21431;BME280;10876;49.038;10.608;2023-06-26T07:33:12;99378.03;;;25.95;100.00
21431;BME280;10876;49.038;10.608;2023-06-26T07:35:39;99359.53;;;25.76;100.00
21431;BME280;10876;49.038;10.608;2023-06-26T07:38:06;99354.78;;;26.05;100.00
21431;BME280;10876;49.038;10.608;2023-06-26T07:40:32;99347.16;;;26.02;100.00
21431;BME280;10876;49.038;10.608;2023-06-26T07:43:01;99341.13;;;26.29;100.00
21431;BME280;10876;49.038;10.608;2023-06-26T07:45:27;99329.09;;;26.68;100.00
21431;BME280;10876;49.038;10.608;2023-06-26T07:47:54;99318.66;;;26.65;100.00
21431;BME280;10876;49.038;10.608;2023-06-26T07:50:21;99316.66;;;26.62;100.00
21431;BME280;10876;49.038;10.608;2023-06-26T07:52:49;99306.56;;;26.82;100.00
21431;BME280;10876;49.038;10.608;2023-06-26T07:55:17;99299.28;;;26.99;100.00
21431;BME280;10876;49.038;10.608;2023-06-26T07:57:44;99296.03;;;27.04;100.00
21431;BME280;10876;49.038;10.608;2023-06-26T08:00:13;99280.72;;;27.09;100.00
21431;BME280;10876;49.038;10.608;2023-06-26T08:02:39;99272.69;;;27.22;100.00
21431;BME280;10876;49.038;10.608;2023-06-26T08:05:06;99270.53;;;27.44;100.00
21431;BME280;10876;49.038;10.608;2023-06-26T08:07:33;99264.72;;;27.69;100.00
21431;BME280;10876;49.038;10.608;2023-06-26T08:10:00;99268.19;;;27.94;100.00
21431;BME280;10876;49.038;10.608;2023-06-26T08:12:27;99258.50;;;27.99;100.00
21431;BME280;10876;49.038;10.608;2023-06-26T08:14:53;99250.38;;;28.08;100.00
21431;BME280;10876;49.038;10.608;2023-06-26T08:17:21;99241.97;;;28.46;100.00
21431;BME280;10876;49.038;10.608;2023-06-26T08:19:48;99228.09;;;28.62;100.00
21431;BME280;10876;49.038;10.608;2023-06-26T08:22:15;99210.31;;;28.65;100.00
21431;BME280;10876;49.038;10.608;2023-06-26T08:24:41;99210.47;;;28.85;100.00
21431;BME280;10876;49.038;10.608;2023-06-26T08:27:08;99198.75;;;29.17;100.00
21431;BME280;10876;49.038;10.608;2023-06-26T08:29:35;99196.09;;;29.34;100.00
21431;BME280;10876;49.038;10.608;2023-06-26T08:32:01;99199.59;;;29.41;100.00
21431;BME280;10876;49.038;10.608;2023-06-26T08:34:30;99173.09;;;29.35;100.00
21431;BME280;10876;49.038;10.608;2023-06-26T08:36:57;99191.66;;;29.33;100.00
21431;BME280;10876;49.038;10.608;2023-06-26T08:39:24;99171.66;;;29.24;100.00
21431;BME280;10876;49.038;10.608;2023-06-26T08:41:50;99170.97;;;29.16;100.00
21431;BME280;10876;49.038;10.608;2023-06-26T08:44:17;99145.91;;;29.45;100.00
21431;BME280;10876;49.038;10.608;2023-06-26T08:46:45;99123.06;;;29.36;100.00
21431;BME280;10876;49.038;10.608;2023-06-26T08:49:14;99113.84;;;29.32;100.00
21431;BME280;10876;49.038;10.608;2023-06-26T08:51:51;99110.06;;;29.42;100.00
21431;BME280;10876;49.038;10.608;2023-06-26T08:54:23;99103.19;;;29.19;100.00
21431;BME280;10876;49.038;10.608;2023-06-26T08:56:54;99096.06;;;29.11;100.00
21431;BME280;10876;49.038;10.608;2023-06-26T08:59:22;99081.47;;;29.63;100.00
21431;BME280;10876;49.038;10.608;2023-06-26T09:01:49;99071.53;;;29.32;100.00
21431;BME280;10876;49.038;10.608;2023-06-26T09:04:16;99066.91;;;29.41;100.00
21431;BME280;10876;49.038;10.608;2023-06-26T09:06:44;99068.34;;;29.53;100.00
21431;BME280;10876;49.038;10.608;2023-06-26T09:09:12;99069.44;;;29.59;100.00
21431;BME280;10876;49.038;10.608;2023-06-26T09:11:38;99063.03;;;29.55;100.00
21431;BME280;10876;49.038;10.608;2023-06-26T09:14:05;99053.59;;;29.66;100.00
21431;BME280;10876;49.038;10.608;2023-06-26T09:16:39;99053.00;;;29.31;100.00
21431;BME280;10876;49.038;10.608;2023-06-26T09:19:09;99062.81;;;29.23;100.00
21431;BME280;10876;49.038;10.608;2023-06-26T09:21:37;99039.03;;;30.07;100.00
21431;BME280;10876;49.038;10.608;2023-06-26T09:24:06;99026.44;;;30.12;100.00
21431;BME280;10876;49.038;10.608;2023-06-26T09:26:35;99026.16;;;30.26;100.00
21431;BME280;10876;49.038;10.608;2023-06-26T09:29:03;99011.19;;;30.62;100.00
21431;BME280;10876;49.038;10.608;2023-06-26T09:31:29;99005.56;;;30.78;100.00
21431;BME280;10876;49.038;10.608;2023-06-26T09:33:58;98993.41;;;30.97;100.00
21431;BME280;10876;49.038;10.608;2023-06-26T09:36:27;98998.75;;;30.75;100.00
21431;BME280;10876;49.038;10.608;2023-06-26T09:38:59;99003.97;;;30.77;100.00
21431;BME280;10876;49.038;10.608;2023-06-26T09:41:26;98996.53;;;30.50;100.00
21431;BME280;10876;49.038;10.608;2023-06-26T09:43:54;99013.50;;;30.50;100.00
21431;BME280;10876;49.038;10.608;2023-06-26T09:46:27;98997.81;;;30.98;100.00
21431;BME280;10876;49.038;10.608;2023-06-26T09:49:03;98992.88;;;31.03;100.00
21431;BME280;10876;49.038;10.608;2023-06-26T09:51:31;98996.91;;;30.69;100.00
21431;BME280;10876;49.038;10.608;2023-06-26T09:53:58;98973.13;;;31.15;100.00
21431;BME280;10876;49.038;10.608;2023-06-26T09:56:25;98970.00;;;31.26;100.00
21431;BME280;10876;49.038;10.608;2023-06-26T09:58:55;98971.59;;;31.27;100.00
21431;BME280;10876;49.038;10.608;2023-06-26T10:01:23;98973.97;;;31.45;100.00
21431;BME280;10876;49.038;10.608;2023-06-26T10:03:49;98975.88;;;31.03;100.00
21431;BME280;10876;49.038;10.608;2023-06-26T10:06:19;98982.56;;;30.76;100.00
21431;BME280;10876;49.038;10.608;2023-06-26T10:08:46;98980.28;;;31.04;100.00
21431;BME280;10876;49.038;10.608;2023-06-26T10:11:16;98957.06;;;31.41;100.00
21431;BME280;10876;49.038;10.608;2023-06-26T10:13:47;98949.41;;;31.55;100.00
21431;BME280;10876;49.038;10.608;2023-06-26T10:16:22;98945.44;;;31.52;100.00
21431;BME280;10876;49.038;10.608;2023-06-26T10:18:51;98950.13;;;32.01;100.00
21431;BME280;10876;49.038;10.608;2023-06-26T10:21:20;98954.44;;;31.76;100.00
21431;BME280;10876;49.038;10.608;2023-06-26T10:23:47;98953.59;;;31.79;100.00
21431;BME280;10876;49.038;10.608;2023-06-26T10:26:14;98954.00;;;31.65;100.00
21431;BME280;10876;49.038;10.608;2023-06-26T10:28:44;98944.25;;;32.08;100.00
21431;BME280;10876;49.038;10.608;2023-06-26T10:31:13;98937.09;;;32.16;100.00
21431;BME280;10876;49.038;10.608;2023-06-26T10:33:42;98945.72;;;32.13;100.00
21431;BME280;10876;49.038;10.608;2023-06-26T10:36:13;98940.88;;;31.71;100.00
21431;BME280;10876;49.038;10.608;2023-06-26T10:38:51;98949.56;;;32.06;100.00
21431;BME280;10876;49.038;10.608;2023-06-26T10:41:22;98950.59;;;32.12;100.00
21431;BME280;10876;49.038;10.608;2023-06-26T10:43:50;98941.06;;;32.19;100.00
21431;BME280;10876;49.038;10.608;2023-06-26T10:46:18;98928.72;;;32.25;100.00
21431;BME280;10876;49.038;10.608;2023-06-26T10:48:57;98953.63;;;31.92;100.00
21431;BME280;10876;49.038;10.608;2023-06-26T10:51:25;98931.53;;;32.38;100.00
21431;BME280;10876;49.038;10.608;2023-06-26T10:53:54;98927.81;;;32.28;100.00
21431;BME280;10876;49.038;10.608;2023-06-26T10:56:20;98948.56;;;32.25;100.00
21431;BME280;10876;49.038;10.608;2023-06-26T10:58:48;98943.78;;;31.97;100.00
21431;BME280;10876;49.038;10.608;2023-06-26T11:01:19;98936.16;;;32.19;100.00
21431;BME280;10876;49.038;10.608;2023-06-26T11:03:59;98943.44;;;32.20;100.00
21431;BME280;10876;49.038;10.608;2023-06-26T11:06:29;98934.94;;;32.33;100.00
21431;BME280;10876;49.038;10.608;2023-06-26T11:09:00;98941.75;;;32.61;100.00
21431;BME280;10876;49.038;10.608;2023-06-26T11:12:00;98942.44;;;32.14;100.00
21431;BME280;10876;49.038;10.608;2023-06-26T11:14:32;98949.53;;;33.08;100.00
21431;BME280;10876;49.038;10.608;2023-06-26T11:17:02;98934.38;;;32.77;100.00
21431;BME280;10876;49.038;10.608;2023-06-26T11:19:29;98922.72;;;33.09;100.00
21431;BME280;10876;49.038;10.608;2023-06-26T11:22:02;98934.72;;;32.53;100.00
21431;BME280;10876;49.038;10.608;2023-06-26T11:24:30;98932.78;;;32.75;100.00
21431;BME280;10876;49.038;10.608;2023-06-26T11:27:00;98914.13;;;33.00;100.00
21431;BME280;10876;49.038;10.608;2023-06-26T11:29:30;98931.97;;;32.75;100.00
21431;BME280;10876;49.038;10.608;2023-06-26T11:32:01;98935.69;;;32.85;100.00
21431;BME280;10876;49.038;10.608;2023-06-26T11:34:31;98920.97;;;32.39;100.00
21431;BME280;10876;49.038;10.608;2023-06-26T11:36:58;98935.09;;;31.75;100.00
21431;BME280;10876;49.038;10.608;2023-06-26T11:39:28;98928.41;;;31.81;100.00
21431;BME280;10876;49.038;10.608;2023-06-26T11:41:55;98928.19;;;31.47;100.00
21431;BME280;10876;49.038;10.608;2023-06-26T11:44:22;98934.38;;;32.38;100.00
21431;BME280;10876;49.038;10.608;2023-06-26T11:46:51;98927.56;;;32.61;100.00
21431;BME280;10876;49.038;10.608;2023-06-26T11:49:20;98908.88;;;33.11;100.00
21431;BME280;10876;49.038;10.608;2023-06-26T11:51:48;98892.84;;;33.05;100.00
21431;BME280;10876;49.038;10.608;2023-06-26T11:54:15;98884.53;;;33.10;100.00
21431;BME280;10876;49.038;10.608;2023-06-26T11:56:43;98877.94;;;33.13;100.00
21431;BME280;10876;49.038;10.608;2023-06-26T11:59:18;98882.19;;;32.96;100.00
21431;BME280;10876;49.038;10.608;2023-06-26T12:01:44;98890.88;;;32.80;100.00
21431;BME280;10876;49.038;10.608;2023-06-26T12:04:16;98909.44;;;32.20;100.00
21431;BME280;10876;49.038;10.608;2023-06-26T12:06:46;98910.44;;;32.01;100.00
21431;BME280;10876;49.038;10.608;2023-06-26T12:09:14;98926.78;;;32.35;100.00
21431;BME280;10876;49.038;10.608;2023-06-26T12:11:44;98912.69;;;32.44;100.00
21431;BME280;10876;49.038;10.608;2023-06-26T12:14:13;98922.06;;;33.05;100.00
21431;BME280;10876;49.038;10.608;2023-06-26T12:16:39;98916.97;;;33.00;100.00
21431;BME280;10876;49.038;10.608;2023-06-26T12:19:08;98909.66;;;33.12;100.00
21431;BME280;10876;49.038;10.608;2023-06-26T12:21:46;98891.56;;;33.40;100.00
21431;BME280;10876;49.038;10.608;2023-06-26T12:24:15;98891.47;;;33.09;100.00
21431;BME280;10876;49.038;10.608;2023-06-26T12:26:44;98876.88;;;33.42;100.00
21431;BME280;10876;49.038;10.608;2023-06-26T12:29:13;98881.00;;;33.41;100.00
21431;BME280;10876;49.038;10.608;2023-06-26T12:31:40;98888.88;;;33.02;100.00
21431;BME280;10876;49.038;10.608;2023-06-26T12:34:13;98899.81;;;32.91;100.00
21431;BME280;10876;49.038;10.608;2023-06-26T12:36:43;98899.00;;;33.03;100.00
21431;BME280;10876;49.038;10.608;2023-06-26T12:39:10;98899.06;;;33.12;100.00
21431;BME280;10876;49.038;10.608;2023-06-26T12:41:47;98890.78;;;33.40;100.00
21431;BME280;10876;49.038;10.608;2023-06-26T12:44:18;98884.63;;;33.63;100.00
21431;BME280;10876;49.038;10.608;2023-06-26T12:46:46;98897.38;;;33.15;100.00
21431;BME280;10876;49.038;10.608;2023-06-26T12:49:13;98904.66;;;33.38;100.00
21431;BME280;10876;49.038;10.608;2023-06-26T12:51:40;98919.41;;;32.63;100.00
21431;BME280;10876;49.038;10.608;2023-06-26T12:54:08;98948.72;;;31.51;100.00
21431;BME280;10876;49.038;10.608;2023-06-26T12:56:34;98955.16;;;31.80;100.00
21431;BME280;10876;49.038;10.608;2023-06-26T12:59:02;98950.25;;;32.36;100.00
21431;BME280;10876;49.038;10.608;2023-06-26T13:01:32;98952.75;;;32.08;100.00
21431;BME280;10876;49.038;10.608;2023-06-26T13:03:59;98961.06;;;32.28;100.00